San Jose, Costa Rica
Current Conditions -  °F | °C
As of 4:00 AM on Wednesday 22 Oct 2014 (Local Time) from MROC Reporting Station
Haze Haze  
Wind Chill: 19°   Ceiling: 10000
Heat Index: 19°   Visibility: 1.2mi
Dew Point: 18°   Wind: 2mph
Humidity: 94%   Direction: 340°NNW
Pressure: 29.98"   Gusts: NA
Location:  10°N, 84.22°W
Report Text: MROC 221000Z 34002KT 2000 BR SCT004 BKN100 19/18 A2998 NOSIG
Loading
Personal Weather Stations






























Interactive Weather Map New forecast layout! Learn more

10-Day Weather Forecast

Advertisements
Track Severe Weather on mobile